createdAt,value
2023-03-23T15:59:54.319Z,1.63
2023-03-23T16:02:25.433Z,1.00
2023-03-23T16:04:53.371Z,1.13
2023-03-23T16:07:24.682Z,1.27
2023-03-23T16:09:52.303Z,1.30
2023-03-23T16:12:21.734Z,1.27
2023-03-23T16:14:49.426Z,1.37
2023-03-23T16:17:21.760Z,1.20
2023-03-23T16:19:49.929Z,0.97
2023-03-23T16:22:18.646Z,1.27
2023-03-23T16:24:46.490Z,1.00
2023-03-23T16:27:14.554Z,1.30
2023-03-23T16:30:02.167Z,1.07
2023-03-23T16:32:31.451Z,1.43
2023-03-23T16:34:59.143Z,1.30
2023-03-23T16:37:26.939Z,0.83
2023-03-23T16:39:54.559Z,1.47
2023-03-23T16:42:22.158Z,1.03
2023-03-23T16:44:51.331Z,0.90
2023-03-23T16:47:23.403Z,1.23
2023-03-23T16:49:51.442Z,1.43
2023-03-23T16:52:19.314Z,0.97
2023-03-23T16:54:47.067Z,1.07
2023-03-23T16:57:14.781Z,1.17
2023-03-23T16:59:42.378Z,1.17
2023-03-23T17:02:12.873Z,1.07
2023-03-23T17:04:44.958Z,1.23
2023-03-23T17:07:13.372Z,0.90
2023-03-23T17:09:42.650Z,1.43
2023-03-23T17:12:10.542Z,1.10
2023-03-23T17:14:38.161Z,1.17
2023-03-23T17:17:05.809Z,1.40
2023-03-23T17:19:35.053Z,1.23
2023-03-23T17:22:03.164Z,1.83
2023-03-23T17:24:30.838Z,1.10
2023-03-23T17:27:22.772Z,0.93
2023-03-23T17:29:50.556Z,0.90
2023-03-23T17:32:18.784Z,0.80
2023-03-23T17:34:47.745Z,1.40
2023-03-23T17:37:16.072Z,1.30
2023-03-23T17:39:44.875Z,1.33
2023-03-23T17:42:14.532Z,1.40
2023-03-23T17:44:42.884Z,1.30
2023-03-23T17:47:10.753Z,1.13
2023-03-23T17:49:38.375Z,1.57
2023-03-23T17:52:07.337Z,0.83
2023-03-23T17:54:35.255Z,0.90
2023-03-23T17:57:03.989Z,1.30
2023-03-23T17:59:32.217Z,0.80
2023-03-23T18:01:59.864Z,1.97
2023-03-23T18:04:28.320Z,1.73
2023-03-23T18:06:57.552Z,1.23
2023-03-23T18:09:27.218Z,1.03
2023-03-23T18:11:56.504Z,1.93
2023-03-23T18:14:24.883Z,2.00
2023-03-23T18:16:53.118Z,1.40
2023-03-23T18:19:21.108Z,1.17
2023-03-23T18:21:49.041Z,3.80
2023-03-23T18:24:16.959Z,2.67
2023-03-23T18:26:45.995Z,2.40
2023-03-23T18:29:13.621Z,2.07
2023-03-23T18:31:41.383Z,1.03
2023-03-23T18:34:09.129Z,2.90
2023-03-23T18:36:36.800Z,3.70
2023-03-23T18:39:06.516Z,2.43
2023-03-23T18:41:34.138Z,2.40
2023-03-23T18:44:03.253Z,1.87
2023-03-23T18:46:30.899Z,2.13
2023-03-23T18:48:58.819Z,2.03
2023-03-23T18:51:26.986Z,1.70
2023-03-23T18:53:54.868Z,1.57
2023-03-23T18:56:22.529Z,2.37
2023-03-23T18:58:53.324Z,2.00
2023-03-23T19:01:22.483Z,1.73
2023-03-23T19:03:50.380Z,2.10
2023-03-23T19:06:20.232Z,3.07
2023-03-23T19:08:48.989Z,2.37
2023-03-23T19:11:17.350Z,2.07
2023-03-23T19:13:58.349Z,2.70
2023-03-23T19:16:31.157Z,3.50
2023-03-23T19:18:59.234Z,3.63
2023-03-23T19:21:29.079Z,1.97
2023-03-23T19:23:59.073Z,2.10
2023-03-23T19:26:31.133Z,2.87
2023-03-23T19:31:31.962Z,2.70
2023-03-23T19:34:00.533Z,2.90
2023-03-23T19:36:28.487Z,2.03
2023-03-23T19:38:57.661Z,2.70
2023-03-23T19:41:27.570Z,3.07
2023-03-23T19:43:55.500Z,2.57
2023-03-23T19:46:23.221Z,2.87
2023-03-23T19:48:52.614Z,3.07
2023-03-23T19:51:22.444Z,2.80
2023-03-23T19:53:50.808Z,2.33
2023-03-23T19:56:21.473Z,2.77
2023-03-23T19:58:49.535Z,4.23
2023-03-23T20:01:17.957Z,4.60
2023-03-23T20:03:46.528Z,3.40
2023-03-23T20:06:16.569Z,3.47
2023-03-23T20:08:47.531Z,3.23
2023-03-23T20:11:18.204Z,2.93
2023-03-23T20:13:48.336Z,3.80
2023-03-23T20:16:17.668Z,3.07
2023-03-23T20:18:46.273Z,4.43
2023-03-23T20:21:19.604Z,3.17
2023-03-23T20:23:48.766Z,3.90
2023-03-23T20:26:21.016Z,2.73
2023-03-23T20:28:48.727Z,3.73
2023-03-23T20:31:23.247Z,4.00
2023-03-23T20:34:00.680Z,3.47
2023-03-23T20:36:36.123Z,3.47
2023-03-23T20:39:06.153Z,3.33
2023-03-23T20:41:36.323Z,2.80
2023-03-23T20:44:05.158Z,3.33
2023-03-23T20:46:33.390Z,2.80
2023-03-23T20:49:01.792Z,3.57
2023-03-23T20:51:31.438Z,2.60
2023-03-23T20:53:59.452Z,4.27
2023-03-23T20:56:27.583Z,3.37
2023-03-23T20:58:55.417Z,3.10
2023-03-23T21:01:23.348Z,3.27
2023-03-23T21:03:52.148Z,2.00
2023-03-23T21:06:20.180Z,2.97
2023-03-23T21:08:51.753Z,2.27
2023-03-23T21:11:21.614Z,2.10
2023-03-23T21:13:50.655Z,2.57
2023-03-23T21:16:19.364Z,2.97
2023-03-23T21:18:48.052Z,3.33
2023-03-23T21:21:18.169Z,2.27
2023-03-23T21:23:52.027Z,3.03
2023-03-23T21:26:23.590Z,1.67
2023-03-23T21:28:53.828Z,3.30
2023-03-23T21:31:25.558Z,2.47
2023-03-23T21:33:53.211Z,2.47
2023-03-23T21:36:21.001Z,2.73
2023-03-23T21:38:49.996Z,3.27
2023-03-23T21:41:23.264Z,2.90
2023-03-23T21:43:52.408Z,2.30
2023-03-23T21:46:22.510Z,2.73
2023-03-23T21:48:51.590Z,3.03
2023-03-23T21:51:22.064Z,2.70
2023-03-23T21:53:50.127Z,2.50
2023-03-23T21:56:18.114Z,2.50
2023-03-23T21:58:46.023Z,3.07
2023-03-23T22:01:16.101Z,3.73
2023-03-23T22:03:43.740Z,2.70
2023-03-23T22:06:14.871Z,2.57
2023-03-23T22:08:44.608Z,2.83
2023-03-23T22:11:14.528Z,2.63
2023-03-23T22:13:42.671Z,2.70
2023-03-23T22:16:14.414Z,3.70
2023-03-23T22:18:45.154Z,3.17
2023-03-23T22:21:14.202Z,3.70
2023-03-23T22:23:42.713Z,2.77
2023-03-23T22:26:15.413Z,4.17
2023-03-23T22:28:46.337Z,2.53
2023-03-23T22:31:19.029Z,2.87
2023-03-23T22:33:49.022Z,2.80
2023-03-23T22:36:18.023Z,2.40
2023-03-23T22:38:48.142Z,2.60
2023-03-23T22:41:19.098Z,4.03
2023-03-23T22:43:47.698Z,2.93
2023-03-23T22:46:16.140Z,3.07
2023-03-23T22:48:44.496Z,4.37
2023-03-23T22:51:15.561Z,2.93
2023-03-23T22:53:43.994Z,3.77
2023-03-23T22:56:12.471Z,3.07
2023-03-23T22:58:40.552Z,2.80
2023-03-23T23:01:10.710Z,3.40
2023-03-23T23:03:40.283Z,3.70
2023-03-23T23:06:09.166Z,3.80
2023-03-23T23:08:39.061Z,5.07
2023-03-23T23:11:10.906Z,2.73
2023-03-23T23:13:39.140Z,2.87
2023-03-23T23:16:07.814Z,2.17
2023-03-23T23:18:36.549Z,3.13
2023-03-23T23:21:07.525Z,2.90
2023-03-23T23:23:36.034Z,2.87
2023-03-23T23:26:05.660Z,3.30
2023-03-23T23:28:33.449Z,3.03
2023-03-23T23:31:01.302Z,3.07
2023-03-23T23:33:29.211Z,2.87
2023-03-23T23:35:56.949Z,2.80
2023-03-23T23:38:25.159Z,3.00
2023-03-23T23:40:52.786Z,3.70
2023-03-23T23:43:24.452Z,3.00
2023-03-23T23:45:52.132Z,4.17
2023-03-23T23:48:20.222Z,3.03
2023-03-23T23:50:50.620Z,2.60
2023-03-23T23:53:22.665Z,2.93
2023-03-23T23:55:50.551Z,2.57
2023-03-23T23:58:18.750Z,2.20
